sensor_id;sensor_type;location;lat;lon;timestamp;pressure;altitude;pressure_sealevel;temperature;humidity
42169;BME280;27838;43.858;25.974;2023-10-08T00:01:54;101110.50;;;21.32;36.02
42169;BME280;27838;43.858;25.974;2023-10-08T00:04:21;101108.03;;;21.27;36.00
42169;BME280;27838;43.858;25.974;2023-10-08T00:06:49;101104.69;;;21.22;35.96
42169;BME280;27838;43.858;25.974;2023-10-08T00:09:18;101092.19;;;21.26;35.90
42169;BME280;27838;43.858;25.974;2023-10-08T00:11:46;101090.47;;;21.25;35.98
42169;BME280;27838;43.858;25.974;2023-10-08T00:14:18;101085.16;;;21.25;35.53
42169;BME280;27838;43.858;25.974;2023-10-08T00:16:47;101084.38;;;21.21;35.79
42169;BME280;27838;43.858;25.974;2023-10-08T00:19:16;101091.53;;;21.19;35.86
42169;BME280;27838;43.858;25.974;2023-10-08T00:21:43;101080.25;;;21.14;35.78
42169;BME280;27838;43.858;25.974;2023-10-08T00:24:14;101079.50;;;21.10;35.91
42169;BME280;27838;43.858;25.974;2023-10-08T00:26:41;101073.59;;;21.04;35.86
42169;BME280;27838;43.858;25.974;2023-10-08T00:29:08;101077.06;;;21.06;35.75
42169;BME280;27838;43.858;25.974;2023-10-08T00:31:45;101070.06;;;21.03;35.60
42169;BME280;27838;43.858;25.974;2023-10-08T00:34:13;101071.06;;;21.01;35.55
42169;BME280;27838;43.858;25.974;2023-10-08T00:36:44;101068.56;;;20.96;35.52
42169;BME280;27838;43.858;25.974;2023-10-08T00:39:13;101072.28;;;20.92;35.25
42169;BME280;27838;43.858;25.974;2023-10-08T00:41:43;101076.78;;;20.90;35.49
42169;BME280;27838;43.858;25.974;2023-10-08T00:44:12;101081.06;;;20.92;35.42
42169;BME280;27838;43.858;25.974;2023-10-08T00:46:41;101074.97;;;20.90;35.17
42169;BME280;27838;43.858;25.974;2023-10-08T00:49:13;101076.78;;;20.90;35.12
42169;BME280;27838;43.858;25.974;2023-10-08T00:51:52;101066.41;;;20.84;34.98
42169;BME280;27838;43.858;25.974;2023-10-08T00:54:41;101072.78;;;20.78;34.96
42169;BME280;27838;43.858;25.974;2023-10-08T00:57:22;101064.03;;;20.76;35.02
42169;BME280;27838;43.858;25.974;2023-10-08T00:59:49;101065.75;;;20.77;34.80
42169;BME280;27838;43.858;25.974;2023-10-08T01:02:23;101056.25;;;20.71;34.93
42169;BME280;27838;43.858;25.974;2023-10-08T01:04:57;101059.19;;;20.64;35.19
42169;BME280;27838;43.858;25.974;2023-10-08T01:07:27;101062.66;;;20.66;35.05
42169;BME280;27838;43.858;25.974;2023-10-08T01:09:55;101060.81;;;20.68;34.82
42169;BME280;27838;43.858;25.974;2023-10-08T01:12:25;101050.31;;;20.65;35.00
42169;BME280;27838;43.858;25.974;2023-10-08T01:14:55;101067.19;;;20.62;35.12
42169;BME280;27838;43.858;25.974;2023-10-08T01:17:30;101057.63;;;20.56;35.04
42169;BME280;27838;43.858;25.974;2023-10-08T01:19:58;101062.41;;;20.47;35.15
42169;BME280;27838;43.858;25.974;2023-10-08T01:22:34;101065.16;;;20.44;35.30
42169;BME280;27838;43.858;25.974;2023-10-08T01:25:04;101058.22;;;20.41;35.29
42169;BME280;27838;43.858;25.974;2023-10-08T01:27:35;101065.28;;;20.41;35.21
42169;BME280;27838;43.858;25.974;2023-10-08T01:30:03;101058.06;;;20.44;35.21
42169;BME280;27838;43.858;25.974;2023-10-08T01:32:35;101060.56;;;20.49;35.30
42169;BME280;27838;43.858;25.974;2023-10-08T01:35:01;101057.03;;;20.50;35.03
42169;BME280;27838;43.858;25.974;2023-10-08T01:37:29;101055.66;;;20.38;35.09
42169;BME280;27838;43.858;25.974;2023-10-08T01:39:59;101048.56;;;20.38;35.37
42169;BME280;27838;43.858;25.974;2023-10-08T01:42:28;101059.16;;;20.38;35.33
42169;BME280;27838;43.858;25.974;2023-10-08T01:44:58;101051.63;;;20.28;35.44
42169;BME280;27838;43.858;25.974;2023-10-08T01:47:25;101049.88;;;20.27;35.60
42169;BME280;27838;43.858;25.974;2023-10-08T01:49:52;101040.38;;;20.21;35.65
42169;BME280;27838;43.858;25.974;2023-10-08T01:52:30;101042.16;;;20.21;35.64
42169;BME280;27838;43.858;25.974;2023-10-08T01:54:56;101042.06;;;20.24;35.76
42169;BME280;27838;43.858;25.974;2023-10-08T01:57:23;101042.97;;;20.23;35.63
42169;BME280;27838;43.858;25.974;2023-10-08T01:59:50;101044.56;;;20.27;35.42
42169;BME280;27838;43.858;25.974;2023-10-08T02:02:17;101049.78;;;20.30;35.43
42169;BME280;27838;43.858;25.974;2023-10-08T02:04:43;101047.03;;;20.33;35.54
42169;BME280;27838;43.858;25.974;2023-10-08T02:07:10;101047.81;;;20.35;35.55
42169;BME280;27838;43.858;25.974;2023-10-08T02:09:41;101045.06;;;20.38;35.49
42169;BME280;27838;43.858;25.974;2023-10-08T02:12:07;101048.56;;;20.38;35.66
42169;BME280;27838;43.858;25.974;2023-10-08T02:14:34;101040.59;;;20.40;35.48
42169;BME280;27838;43.858;25.974;2023-10-08T02:17:01;101029.19;;;20.38;35.52
42169;BME280;27838;43.858;25.974;2023-10-08T02:19:32;101026.75;;;20.32;35.27
42169;BME280;27838;43.858;25.974;2023-10-08T02:22:00;101033.78;;;20.33;35.36
42169;BME280;27838;43.858;25.974;2023-10-08T02:24:27;101030.34;;;20.31;35.57
42169;BME280;27838;43.858;25.974;2023-10-08T02:26:55;101034.94;;;20.26;35.50
42169;BME280;27838;43.858;25.974;2023-10-08T02:29:26;101032.53;;;20.18;35.67
42169;BME280;27838;43.858;25.974;2023-10-08T02:31:52;101028.59;;;20.05;35.80
42169;BME280;27838;43.858;25.974;2023-10-08T02:34:20;101023.47;;;20.00;35.90
42169;BME280;27838;43.858;25.974;2023-10-08T02:36:46;101035.66;;;20.04;35.90
42169;BME280;27838;43.858;25.974;2023-10-08T02:39:13;101026.88;;;20.04;35.87
42169;BME280;27838;43.858;25.974;2023-10-08T02:41:43;101032.25;;;20.00;36.07
42169;BME280;27838;43.858;25.974;2023-10-08T02:44:15;101029.84;;;19.94;36.17
42169;BME280;27838;43.858;25.974;2023-10-08T02:46:43;101022.84;;;19.92;36.37
42169;BME280;27838;43.858;25.974;2023-10-08T02:49:13;101011.88;;;19.77;36.35
42169;BME280;27838;43.858;25.974;2023-10-08T02:51:44;101005.78;;;19.75;36.46
42169;BME280;27838;43.858;25.974;2023-10-08T02:54:11;101000.56;;;19.72;36.42
42169;BME280;27838;43.858;25.974;2023-10-08T02:56:46;101013.78;;;19.72;36.40
42169;BME280;27838;43.858;25.974;2023-10-08T02:59:16;101006.88;;;19.68;36.45
42169;BME280;27838;43.858;25.974;2023-10-08T03:01:47;101007.78;;;19.67;36.49
42169;BME280;27838;43.858;25.974;2023-10-08T03:04:14;101010.75;;;19.58;36.69
42169;BME280;27838;43.858;25.974;2023-10-08T03:06:47;101015.22;;;19.56;36.63
42169;BME280;27838;43.858;25.974;2023-10-08T03:09:18;101007.53;;;19.48;36.81
42169;BME280;27838;43.858;25.974;2023-10-08T03:11:49;101016.28;;;19.50;37.07
42169;BME280;27838;43.858;25.974;2023-10-08T03:14:17;101017.16;;;19.51;37.05
42169;BME280;27838;43.858;25.974;2023-10-08T03:16:48;101016.69;;;19.38;36.96
42169;BME280;27838;43.858;25.974;2023-10-08T03:19:15;101011.50;;;19.35;37.23
42169;BME280;27838;43.858;25.974;2023-10-08T03:21:44;101016.97;;;19.29;37.38
42169;BME280;27838;43.858;25.974;2023-10-08T03:24:17;101010.97;;;19.23;37.56
42169;BME280;27838;43.858;25.974;2023-10-08T03:26:59;101014.63;;;19.19;37.50
42169;BME280;27838;43.858;25.974;2023-10-08T03:29:35;101011.94;;;19.21;37.65
42169;BME280;27838;43.858;25.974;2023-10-08T03:32:07;101014.66;;;19.18;37.60
42169;BME280;27838;43.858;25.974;2023-10-08T03:34:40;101010.31;;;19.17;37.60
42169;BME280;27838;43.858;25.974;2023-10-08T03:37:12;101015.50;;;19.18;37.59
42169;BME280;27838;43.858;25.974;2023-10-08T03:39:45;101014.56;;;19.21;37.69
42169;BME280;27838;43.858;25.974;2023-10-08T03:42:25;101009.38;;;19.18;37.61
42169;BME280;27838;43.858;25.974;2023-10-08T03:44:55;100998.13;;;19.11;37.81
42169;BME280;27838;43.858;25.974;2023-10-08T03:47:22;100989.38;;;19.09;38.00
42169;BME280;27838;43.858;25.974;2023-10-08T03:49:52;100999.22;;;19.04;38.04
42169;BME280;27838;43.858;25.974;2023-10-08T03:52:20;100994.88;;;19.03;38.19
42169;BME280;27838;43.858;25.974;2023-10-08T03:54:49;100988.72;;;19.02;38.21
42169;BME280;27838;43.858;25.974;2023-10-08T03:57:29;100989.66;;;19.01;38.16
42169;BME280;27838;43.858;25.974;2023-10-08T04:00:11;100987.00;;;19.01;38.16
42169;BME280;27838;43.858;25.974;2023-10-08T04:02:44;100987.09;;;18.98;38.21
42169;BME280;27838;43.858;25.974;2023-10-08T04:05:21;100992.47;;;18.95;37.98
42169;BME280;27838;43.858;25.974;2023-10-08T04:07:53;101001.47;;;18.88;38.13
42169;BME280;27838;43.858;25.974;2023-10-08T04:10:42;101006.75;;;18.88;38.23
42169;BME280;27838;43.858;25.974;2023-10-08T04:13:27;100982.31;;;18.80;38.41
42169;BME280;27838;43.858;25.974;2023-10-08T04:15:55;100984.91;;;18.81;38.48
42169;BME280;27838;43.858;25.974;2023-10-08T04:18:23;100987.59;;;18.80;38.49
42169;BME280;27838;43.858;25.974;2023-10-08T04:20:49;100980.56;;;18.82;38.46
42169;BME280;27838;43.858;25.974;2023-10-08T04:23:29;100980.59;;;18.79;38.40
42169;BME280;27838;43.858;25.974;2023-10-08T04:25:56;100978.94;;;18.75;38.57
42169;BME280;27838;43.858;25.974;2023-10-08T04:28:23;100983.25;;;18.79;38.53
42169;BME280;27838;43.858;25.974;2023-10-08T04:30:54;100986.69;;;18.82;38.26
42169;BME280;27838;43.858;25.974;2023-10-08T04:33:39;100979.72;;;18.78;38.28
42169;BME280;27838;43.858;25.974;2023-10-08T04:36:06;100989.50;;;18.75;38.19
42169;BME280;27838;43.858;25.974;2023-10-08T04:38:33;100989.72;;;18.68;38.53
42169;BME280;27838;43.858;25.974;2023-10-08T04:41:05;100995.81;;;18.71;38.55
42169;BME280;27838;43.858;25.974;2023-10-08T04:43:34;101000.19;;;18.72;38.43
42169;BME280;27838;43.858;25.974;2023-10-08T04:46:04;100993.13;;;18.72;38.42
42169;BME280;27838;43.858;25.974;2023-10-08T04:48:43;100992.16;;;18.75;38.42
42169;BME280;27838;43.858;25.974;2023-10-08T04:51:10;101002.06;;;18.68;38.40
42169;BME280;27838;43.858;25.974;2023-10-08T04:53:38;100989.78;;;18.65;38.70
42169;BME280;27838;43.858;25.974;2023-10-08T04:56:10;100992.47;;;18.64;38.82
42169;BME280;27838;43.858;25.974;2023-10-08T04:58:43;100998.69;;;18.63;38.71
42169;BME280;27838;43.858;25.974;2023-10-08T05:01:12;100998.66;;;18.64;38.84
42169;BME280;27838;43.858;25.974;2023-10-08T05:03:54;100997.69;;;18.67;38.85
42169;BME280;27838;43.858;25.974;2023-10-08T05:06:33;101000.84;;;18.78;38.63
42169;BME280;27838;43.858;25.974;2023-10-08T05:09:16;101005.81;;;18.91;38.52
42169;BME280;27838;43.858;25.974;2023-10-08T05:11:50;100995.06;;;18.97;38.01
42169;BME280;27838;43.858;25.974;2023-10-08T05:14:35;100991.34;;;19.02;38.26
42169;BME280;27838;43.858;25.974;2023-10-08T05:17:11;100997.16;;;19.15;38.25
42169;BME280;27838;43.858;25.974;2023-10-08T05:19:37;101004.00;;;19.21;38.16
42169;BME280;27838;43.858;25.974;2023-10-08T05:22:21;101010.78;;;19.30;38.08
42169;BME280;27838;43.858;25.974;2023-10-08T05:25:09;101002.75;;;19.33;37.96
42169;BME280;27838;43.858;25.974;2023-10-08T05:27:52;101012.34;;;19.35;37.98
42169;BME280;27838;43.858;25.974;2023-10-08T05:30:28;101016.38;;;19.47;38.12
42169;BME280;27838;43.858;25.974;2023-10-08T05:33:08;101005.72;;;19.50;38.24
42169;BME280;27838;43.858;25.974;2023-10-08T05:35:49;101015.53;;;19.47;38.17
42169;BME280;27838;43.858;25.974;2023-10-08T05:38:21;101012.72;;;19.51;38.28
42169;BME280;27838;43.858;25.974;2023-10-08T05:41:04;101016.03;;;19.58;38.21
42169;BME280;27838;43.858;25.974;2023-10-08T05:43:35;101013.38;;;19.58;38.37
42169;BME280;27838;43.858;25.974;2023-10-08T05:46:19;101001.19;;;19.54;38.25
42169;BME280;27838;43.858;25.974;2023-10-08T05:49:00;101016.13;;;19.55;38.06
42169;BME280;27838;43.858;25.974;2023-10-08T05:51:29;101010.03;;;19.53;38.23
42169;BME280;27838;43.858;25.974;2023-10-08T05:54:21;101005.63;;;19.52;38.24
42169;BME280;27838;43.858;25.974;2023-10-08T05:57:01;101008.19;;;19.55;38.12
42169;BME280;27838;43.858;25.974;2023-10-08T05:59:33;101010.03;;;19.53;38.28
42169;BME280;27838;43.858;25.974;2023-10-08T06:02:06;101013.38;;;19.58;38.13
42169;BME280;27838;43.858;25.974;2023-10-08T06:04:52;100992.84;;;19.66;38.03
42169;BME280;27838;43.858;25.974;2023-10-08T06:07:39;100985.53;;;19.74;37.74
42169;BME280;27838;43.858;25.974;2023-10-08T06:10:16;100980.84;;;19.83;37.79
42169;BME280;27838;43.858;25.974;2023-10-08T06:13:12;100979.94;;;19.84;37.74
42169;BME280;27838;43.858;25.974;2023-10-08T06:15:42;100989.16;;;19.97;37.58
42169;BME280;27838;43.858;25.974;2023-10-08T06:18:12;100989.81;;;20.04;37.59
42169;BME280;27838;43.858;25.974;2023-10-08T06:20:41;100990.47;;;20.10;37.24
42169;BME280;27838;43.858;25.974;2023-10-08T06:23:14;100981.19;;;20.24;36.85
42169;BME280;27838;43.858;25.974;2023-10-08T06:25:44;100985.22;;;20.34;36.88
42169;BME280;27838;43.858;25.974;2023-10-08T06:28:15;100986.78;;;20.40;36.83
42169;BME280;27838;43.858;25.974;2023-10-08T06:30:47;100983.84;;;20.47;36.35
42169;BME280;27838;43.858;25.974;2023-10-08T06:33:15;100973.25;;;20.47;36.50
42169;BME280;27838;43.858;25.974;2023-10-08T06:35:42;100971.94;;;20.59;36.34
42169;BME280;27838;43.858;25.974;2023-10-08T06:38:12;100974.19;;;20.70;35.80
42169;BME280;27838;43.858;25.974;2023-10-08T06:40:40;100969.59;;;20.75;36.01
42169;BME280;27838;43.858;25.974;2023-10-08T06:43:06;100969.38;;;20.81;35.77
42169;BME280;27838;43.858;25.974;2023-10-08T06:45:44;100965.56;;;20.88;35.49
42169;BME280;27838;43.858;25.974;2023-10-08T06:48:14;100966.19;;;20.95;35.61
42169;BME280;27838;43.858;25.974;2023-10-08T06:50:46;100950.09;;;21.00;35.38
42169;BME280;27838;43.858;25.974;2023-10-08T06:53:13;100964.69;;;21.10;35.33
42169;BME280;27838;43.858;25.974;2023-10-08T06:55:41;100953.09;;;21.12;35.24
42169;BME280;27838;43.858;25.974;2023-10-08T06:58:09;100954.50;;;21.21;35.12
42169;BME280;27838;43.858;25.974;2023-10-08T07:00:37;100949.66;;;21.33;35.08
42169;BME280;27838;43.858;25.974;2023-10-08T07:03:06;100938.50;;;21.46;35.06
42169;BME280;27838;43.858;25.974;2023-10-08T07:05:35;100940.44;;;21.63;34.74
42169;BME280;27838;43.858;25.974;2023-10-08T07:08:09;100942.69;;;21.73;34.46
42169;BME280;27838;43.858;25.974;2023-10-08T07:10:39;100934.59;;;21.76;34.09
42169;BME280;27838;43.858;25.974;2023-10-08T07:13:08;100934.94;;;21.88;33.90
42169;BME280;27838;43.858;25.974;2023-10-08T07:15:35;100930.09;;;21.98;33.88
42169;BME280;27838;43.858;25.974;2023-10-08T07:18:05;100930.66;;;22.05;33.41
42169;BME280;27838;43.858;25.974;2023-10-08T07:20:39;100930.38;;;22.11;33.09
42169;BME280;27838;43.858;25.974;2023-10-08T07:23:08;100918.50;;;22.20;32.79
42169;BME280;27838;43.858;25.974;2023-10-08T07:25:45;100896.09;;;22.25;32.39
42169;BME280;27838;43.858;25.974;2023-10-08T07:28:12;100897.50;;;22.34;32.30
42169;BME280;27838;43.858;25.974;2023-10-08T07:30:39;100891.75;;;22.43;32.32
42169;BME280;27838;43.858;25.974;2023-10-08T07:33:10;100899.00;;;22.59;32.13
42169;BME280;27838;43.858;25.974;2023-10-08T07:35:46;100898.59;;;22.68;31.66
42169;BME280;27838;43.858;25.974;2023-10-08T07:38:25;100898.00;;;22.80;31.56
42169;BME280;27838;43.858;25.974;2023-10-08T07:40:52;100892.09;;;22.93;31.42
42169;BME280;27838;43.858;25.974;2023-10-08T07:43:20;100894.22;;;23.04;31.12
42169;BME280;27838;43.858;25.974;2023-10-08T07:45:47;100890.34;;;23.11;31.01
42169;BME280;27838;43.858;25.974;2023-10-08T07:48:14;100885.66;;;23.16;30.87
42169;BME280;27838;43.858;25.974;2023-10-08T07:50:42;100884.25;;;23.26;30.96
42169;BME280;27838;43.858;25.974;2023-10-08T07:53:10;100870.56;;;23.34;30.49
42169;BME280;27838;43.858;25.974;2023-10-08T07:55:46;100862.09;;;23.43;30.64
42169;BME280;27838;43.858;25.974;2023-10-08T07:58:15;100861.78;;;23.49;30.44
42169;BME280;27838;43.858;25.974;2023-10-08T08:00:42;100866.63;;;23.59;30.20
42169;BME280;27838;43.858;25.974;2023-10-08T08:03:18;100875.78;;;23.70;30.05
42169;BME280;27838;43.858;25.974;2023-10-08T08:05:44;100864.72;;;23.78;29.88
42169;BME280;27838;43.858;25.974;2023-10-08T08:08:11;100851.91;;;23.86;29.95
42169;BME280;27838;43.858;25.974;2023-10-08T08:10:46;100842.63;;;23.93;29.74
42169;BME280;27838;43.858;25.974;2023-10-08T08:13:12;100856.25;;;24.05;29.49
42169;BME280;27838;43.858;25.974;2023-10-08T08:15:46;100835.47;;;24.11;29.35
42169;BME280;27838;43.858;25.974;2023-10-08T08:18:16;100850.09;;;24.20;29.32
42169;BME280;27838;43.858;25.974;2023-10-08T08:20:48;100846.97;;;24.28;29.79
42169;BME280;27838;43.858;25.974;2023-10-08T08:23:14;100833.50;;;24.31;29.13
42169;BME280;27838;43.858;25.974;2023-10-08T08:25:43;100828.41;;;24.42;29.01
42169;BME280;27838;43.858;25.974;2023-10-08T08:28:21;100825.34;;;24.50;28.97
42169;BME280;27838;43.858;25.974;2023-10-08T08:30:50;100832.75;;;24.61;28.70
42169;BME280;27838;43.858;25.974;2023-10-08T08:33:20;100817.88;;;24.73;28.93
42169;BME280;27838;43.858;25.974;2023-10-08T08:36:00;100811.03;;;24.83;28.60
42169;BME280;27838;43.858;25.974;2023-10-08T08:38:29;100812.03;;;24.96;28.21
42169;BME280;27838;43.858;25.974;2023-10-08T08:41:04;100798.44;;;25.01;28.33
42169;BME280;27838;43.858;25.974;2023-10-08T08:43:36;100801.47;;;25.09;28.50
42169;BME280;27838;43.858;25.974;2023-10-08T08:46:04;100799.97;;;25.19;28.36
42169;BME280;27838;43.858;25.974;2023-10-08T08:48:33;100797.50;;;25.32;28.16
42169;BME280;27838;43.858;25.974;2023-10-08T08:51:00;100790.06;;;25.37;28.15
42169;BME280;27838;43.858;25.974;2023-10-08T08:53:27;100792.81;;;25.36;28.01
42169;BME280;27838;43.858;25.974;2023-10-08T08:55:54;100787.50;;;25.50;28.16
42169;BME280;27838;43.858;25.974;2023-10-08T08:58:21;100782.63;;;25.57;27.96
42169;BME280;27838;43.858;25.974;2023-10-08T09:00:52;100775.97;;;25.64;27.59
42169;BME280;27838;43.858;25.974;2023-10-08T09:03:18;100789.22;;;25.66;27.34
42169;BME280;27838;43.858;25.974;2023-10-08T09:05:45;100795.41;;;25.66;27.59
42169;BME280;27838;43.858;25.974;2023-10-08T09:08:16;100773.19;;;25.66;27.17
42169;BME280;27838;43.858;25.974;2023-10-08T09:10:44;100785.88;;;25.76;27.33
42169;BME280;27838;43.858;25.974;2023-10-08T09:13:22;100775.47;;;25.86;27.23
42169;BME280;27838;43.858;25.974;2023-10-08T09:15:51;100775.56;;;25.99;27.18
42169;BME280;27838;43.858;25.974;2023-10-08T09:18:17;100774.69;;;26.13;27.35
42169;BME280;27838;43.858;25.974;2023-10-08T09:20:48;100768.19;;;26.17;26.95
42169;BME280;27838;43.858;25.974;2023-10-08T09:23:15;100771.22;;;26.25;27.09
42169;BME280;27838;43.858;25.974;2023-10-08T09:25:45;100763.44;;;26.35;27.33
42169;BME280;27838;43.858;25.974;2023-10-08T09:28:15;100766.19;;;26.48;26.86
42169;BME280;27838;43.858;25.974;2023-10-08T09:30:42;100756.34;;;26.48;26.88
42169;BME280;27838;43.858;25.974;2023-10-08T09:33:13;100759.03;;;26.61;26.99
42169;BME280;27838;43.858;25.974;2023-10-08T09:35:42;100751.69;;;26.65;25.95
42169;BME280;27838;43.858;25.974;2023-10-08T09:38:09;100733.13;;;26.76;26.10
42169;BME280;27838;43.858;25.974;2023-10-08T09:40:40;100729.97;;;26.97;25.97
42169;BME280;27838;43.858;25.974;2023-10-08T09:43:10;100736.81;;;27.13;25.77
42169;BME280;27838;43.858;25.974;2023-10-08T09:45:38;100722.28;;;27.30;25.65
42169;BME280;27838;43.858;25.974;2023-10-08T09:48:11;100728.69;;;27.41;25.49
42169;BME280;27838;43.858;25.974;2023-10-08T09:50:40;100715.19;;;27.55;25.07
42169;BME280;27838;43.858;25.974;2023-10-08T09:53:11;100716.91;;;27.56;25.19
42169;BME280;27838;43.858;25.974;2023-10-08T09:55:57;100700.16;;;27.65;25.10
42169;BME280;27838;43.858;25.974;2023-10-08T09:58:27;100709.78;;;27.81;25.17
42169;BME280;27838;43.858;25.974;2023-10-08T10:00:55;100695.63;;;27.92;25.08
42169;BME280;27838;43.858;25.974;2023-10-08T10:03:24;100681.69;;;27.99;24.67
42169;BME280;27838;43.858;25.974;2023-10-08T10:05:52;100681.22;;;28.05;24.68
42169;BME280;27838;43.858;25.974;2023-10-08T10:08:23;100679.28;;;28.08;24.52
42169;BME280;27838;43.858;25.974;2023-10-08T10:10:58;100669.75;;;28.03;24.97
42169;BME280;27838;43.858;25.974;2023-10-08T10:13:29;100666.59;;;28.10;24.96
42169;BME280;27838;43.858;25.974;2023-10-08T10:15:59;100669.59;;;28.18;24.93
42169;BME280;27838;43.858;25.974;2023-10-08T10:20:58;100659.66;;;28.31;24.87
42169;BME280;27838;43.858;25.974;2023-10-08T10:23:38;100658.72;;;28.43;24.81
42169;BME280;27838;43.858;25.974;2023-10-08T10:29:21;100652.84;;;28.62;24.95
42169;BME280;27838;43.858;25.974;2023-10-08T10:31:51;100644.41;;;28.67;24.76
42169;BME280;27838;43.858;25.974;2023-10-08T10:34:26;100636.38;;;28.67;24.75
42169;BME280;27838;43.858;25.974;2023-10-08T10:36:55;100641.28;;;28.73;25.15
42169;BME280;27838;43.858;25.974;2023-10-08T10:39:24;100642.38;;;28.82;24.94
42169;BME280;27838;43.858;25.974;2023-10-08T10:41:59;100647.00;;;28.91;24.89
42169;BME280;27838;43.858;25.974;2023-10-08T10:44:29;100643.38;;;28.92;25.29
42169;BME280;27838;43.858;25.974;2023-10-08T10:46:57;100626.66;;;28.89;24.86
42169;BME280;27838;43.858;25.974;2023-10-08T10:49:55;100623.38;;;28.85;25.21
42169;BME280;27838;43.858;25.974;2023-10-08T10:52:54;100623.09;;;28.77;25.30
42169;BME280;27838;43.858;25.974;2023-10-08T10:55:21;100622.50;;;28.73;25.32
42169;BME280;27838;43.858;25.974;2023-10-08T10:57:57;100618.59;;;28.77;25.48
42169;BME280;27838;43.858;25.974;2023-10-08T11:00:30;100607.03;;;28.77;25.58
42169;BME280;27838;43.858;25.974;2023-10-08T11:03:14;100600.81;;;28.76;25.60
42169;BME280;27838;43.858;25.974;2023-10-08T11:05:51;100600.06;;;28.74;25.42
42169;BME280;27838;43.858;25.974;2023-10-08T11:08:20;100591.28;;;28.72;25.61
42169;BME280;27838;43.858;25.974;2023-10-08T11:10:48;100595.19;;;28.68;25.58
42169;BME280;27838;43.858;25.974;2023-10-08T11:13:18;100595.41;;;28.65;25.66
42169;BME280;27838;43.858;25.974;2023-10-08T11:15:48;100590.91;;;28.66;25.72
42169;BME280;27838;43.858;25.974;2023-10-08T11:18:22;100572.63;;;28.71;25.74
42169;BME280;27838;43.858;25.974;2023-10-08T11:20:50;100572.66;;;28.82;25.77
42169;BME280;27838;43.858;25.974;2023-10-08T11:23:36;100573.00;;;28.77;25.49
42169;BME280;27838;43.858;25.974;2023-10-08T11:26:04;100563.75;;;28.81;25.63
42169;BME280;27838;43.858;25.974;2023-10-08T11:28:37;100569.84;;;28.84;25.63
42169;BME280;27838;43.858;25.974;2023-10-08T11:31:09;100563.75;;;28.93;25.62
42169;BME280;27838;43.858;25.974;2023-10-08T11:33:37;100563.38;;;28.97;25.91
42169;BME280;27838;43.858;25.974;2023-10-08T11:36:05;100553.84;;;29.05;25.71
42169;BME280;27838;43.858;25.974;2023-10-08T11:38:46;100559.09;;;29.06;25.63
42169;BME280;27838;43.858;25.974;2023-10-08T11:41:19;100557.88;;;29.10;26.02
42169;BME280;27838;43.858;25.974;2023-10-08T11:43:49;100545.69;;;29.17;25.86
42169;BME280;27838;43.858;25.974;2023-10-08T11:46:23;100541.53;;;29.25;25.75
42169;BME280;27838;43.858;25.974;2023-10-08T11:48:54;100527.75;;;29.29;25.47
42169;BME280;27838;43.858;25.974;2023-10-08T11:51:24;100530.06;;;29.34;25.35
42169;BME280;27838;43.858;25.974;2023-10-08T11:53:53;100517.84;;;29.30;25.67
42169;BME280;27838;43.858;25.974;2023-10-08T11:56:19;100538.09;;;29.34;25.58
42169;BME280;27838;43.858;25.974;2023-10-08T11:58:48;100536.16;;;29.36;25.63
42169;BME280;27838;43.858;25.974;2023-10-08T12:01:16;100529.31;;;29.32;25.61
42169;BME280;27838;43.858;25.974;2023-10-08T12:03:44;100532.75;;;29.34;25.63
42169;BME280;27838;43.858;25.974;2023-10-08T12:06:12;100537.34;;;29.32;25.76
42169;BME280;27838;43.858;25.974;2023-10-08T12:08:41;100540.75;;;29.45;25.90
42169;BME280;27838;43.858;25.974;2023-10-08T12:11:11;100530.22;;;29.53;25.46
42169;BME280;27838;43.858;25.974;2023-10-08T12:13:38;100522.44;;;29.50;25.63
42169;BME280;27838;43.858;25.974;2023-10-08T12:16:10;100516.34;;;29.48;25.63
42169;BME280;27838;43.858;25.974;2023-10-08T12:18:38;100519.88;;;29.49;25.53
42169;BME280;27838;43.858;25.974;2023-10-08T12:21:06;100518.78;;;29.51;25.48
42169;BME280;27838;43.858;25.974;2023-10-08T12:23:38;100508.75;;;29.53;25.44
42169;BME280;27838;43.858;25.974;2023-10-08T12:26:06;100518.78;;;29.51;25.38
42169;BME280;27838;43.858;25.974;2023-10-08T12:28:34;100509.25;;;29.47;25.34
42169;BME280;27838;43.858;25.974;2023-10-08T12:31:02;100521.97;;;29.45;25.61
42169;BME280;27838;43.858;25.974;2023-10-08T12:33:29;100523.66;;;29.46;25.50
42169;BME280;27838;43.858;25.974;2023-10-08T12:35:57;100517.19;;;29.49;25.60
42169;BME280;27838;43.858;25.974;2023-10-08T12:38:36;100521.47;;;29.51;25.51
42169;BME280;27838;43.858;25.974;2023-10-08T12:41:02;100515.22;;;29.51;25.45
42169;BME280;27838;43.858;25.974;2023-10-08T12:43:37;100520.84;;;29.48;25.45
42169;BME280;27838;43.858;25.974;2023-10-08T12:46:04;100525.84;;;29.52;25.70
42169;BME280;27838;43.858;25.974;2023-10-08T12:48:37;100528.75;;;29.49;25.41
42169;BME280;27838;43.858;25.974;2023-10-08T12:51:03;100538.78;;;29.47;25.56
42169;BME280;27838;43.858;25.974;2023-10-08T12:53:32;100531.13;;;29.43;25.55
42169;BME280;27838;43.858;25.974;2023-10-08T12:56:01;100534.91;;;29.40;25.48
42169;BME280;27838;43.858;25.974;2023-10-08T12:58:32;100535.50;;;29.44;25.59
42169;BME280;27838;43.858;25.974;2023-10-08T13:01:04;100527.09;;;29.37;25.32
42169;BME280;27838;43.858;25.974;2023-10-08T13:03:32;100528.59;;;29.30;25.25
42169;BME280;27838;43.858;25.974;2023-10-08T13:06:06;100541.03;;;29.31;25.29
42169;BME280;27838;43.858;25.974;2023-10-08T13:08:36;100533.94;;;29.30;25.51